sensor_id;sensor_type;location;lat;lon;timestamp;P1;durP1;ratioP1;P2;durP2;ratioP2
1593;SDS011;790;47.000;16.084;2023-05-10T00:01:33;4.50;;;3.83;;
1593;SDS011;790;47.000;16.084;2023-05-10T00:04:01;3.77;;;3.47;;
1593;SDS011;790;47.000;16.084;2023-05-10T00:06:28;4.77;;;4.13;;
1593;SDS011;790;47.000;16.084;2023-05-10T00:08:57;4.80;;;4.40;;
1593;SDS011;790;47.000;16.084;2023-05-10T00:11:24;4.73;;;4.03;;
1593;SDS011;790;47.000;16.084;2023-05-10T00:13:51;4.37;;;3.97;;
1593;SDS011;790;47.000;16.084;2023-05-10T00:16:19;4.17;;;3.87;;
1593;SDS011;790;47.000;16.084;2023-05-10T00:18:46;4.23;;;3.90;;
1593;SDS011;790;47.000;16.084;2023-05-10T00:21:13;4.23;;;3.93;;
1593;SDS011;790;47.000;16.084;2023-05-10T00:23:41;4.33;;;3.93;;
1593;SDS011;790;47.000;16.084;2023-05-10T00:26:09;4.80;;;4.40;;
1593;SDS011;790;47.000;16.084;2023-05-10T00:28:37;4.30;;;4.00;;
1593;SDS011;790;47.000;16.084;2023-05-10T00:31:04;4.50;;;4.10;;
1593;SDS011;790;47.000;16.084;2023-05-10T00:33:31;5.03;;;4.43;;
1593;SDS011;790;47.000;16.084;2023-05-10T00:35:58;4.30;;;4.00;;
1593;SDS011;790;47.000;16.084;2023-05-10T00:38:25;4.03;;;3.73;;
1593;SDS011;790;47.000;16.084;2023-05-10T00:40:52;4.47;;;4.07;;
1593;SDS011;790;47.000;16.084;2023-05-10T00:43:21;4.20;;;3.90;;
1593;SDS011;790;47.000;16.084;2023-05-10T00:45:48;4.50;;;4.10;;
1593;SDS011;790;47.000;16.084;2023-05-10T00:48:16;4.93;;;4.07;;
1593;SDS011;790;47.000;16.084;2023-05-10T00:50:43;3.70;;;3.50;;
1593;SDS011;790;47.000;16.084;2023-05-10T00:53:11;4.30;;;4.00;;
1593;SDS011;790;47.000;16.084;2023-05-10T00:55:38;4.17;;;3.87;;
1593;SDS011;790;47.000;16.084;2023-05-10T00:58:06;4.10;;;3.77;;
1593;SDS011;790;47.000;16.084;2023-05-10T01:00:35;4.00;;;3.70;;
1593;SDS011;790;47.000;16.084;2023-05-10T01:03:03;4.30;;;4.00;;
1593;SDS011;790;47.000;16.084;2023-05-10T01:05:30;4.73;;;3.90;;
1593;SDS011;790;47.000;16.084;2023-05-10T01:07:57;4.37;;;3.97;;
1593;SDS011;790;47.000;16.084;2023-05-10T01:10:25;4.10;;;3.80;;
1593;SDS011;790;47.000;16.084;2023-05-10T01:12:53;4.33;;;4.03;;
1593;SDS011;790;47.000;16.084;2023-05-10T01:15:21;4.43;;;4.07;;
1593;SDS011;790;47.000;16.084;2023-05-10T01:17:50;4.20;;;3.80;;
1593;SDS011;790;47.000;16.084;2023-05-10T01:20:18;4.13;;;3.90;;
1593;SDS011;790;47.000;16.084;2023-05-10T01:23:01;3.63;;;3.43;;
1593;SDS011;790;47.000;16.084;2023-05-10T01:25:43;4.60;;;4.27;;
1593;SDS011;790;47.000;16.084;2023-05-10T01:31:39;4.60;;;4.20;;
1593;SDS011;790;47.000;16.084;2023-05-10T01:34:30;4.50;;;4.10;;
1593;SDS011;790;47.000;16.084;2023-05-10T01:37:02;4.97;;;4.53;;
1593;SDS011;790;47.000;16.084;2023-05-10T01:39:39;5.47;;;5.03;;
1593;SDS011;790;47.000;16.084;2023-05-10T01:42:14;4.50;;;4.20;;
1593;SDS011;790;47.000;16.084;2023-05-10T01:44:46;4.37;;;3.87;;
1593;SDS011;790;47.000;16.084;2023-05-10T01:47:23;4.30;;;3.90;;
1593;SDS011;790;47.000;16.084;2023-05-10T01:50:00;4.80;;;4.40;;
1593;SDS011;790;47.000;16.084;2023-05-10T01:52:30;4.27;;;3.93;;
1593;SDS011;790;47.000;16.084;2023-05-10T01:55:00;5.90;;;4.47;;
1593;SDS011;790;47.000;16.084;2023-05-10T01:57:32;4.20;;;3.90;;
1593;SDS011;790;47.000;16.084;2023-05-10T02:00:01;6.80;;;4.90;;
1593;SDS011;790;47.000;16.084;2023-05-10T02:02:30;4.60;;;4.27;;
1593;SDS011;790;47.000;16.084;2023-05-10T02:05:01;4.67;;;4.07;;
1593;SDS011;790;47.000;16.084;2023-05-10T02:07:32;4.77;;;4.37;;
1593;SDS011;790;47.000;16.084;2023-05-10T02:10:02;5.10;;;4.60;;
1593;SDS011;790;47.000;16.084;2023-05-10T02:12:33;5.10;;;4.70;;
1593;SDS011;790;47.000;16.084;2023-05-10T02:15:04;4.97;;;4.57;;
1593;SDS011;790;47.000;16.084;2023-05-10T02:17:37;5.03;;;4.63;;
1593;SDS011;790;47.000;16.084;2023-05-10T02:20:11;4.80;;;4.40;;
1593;SDS011;790;47.000;16.084;2023-05-10T02:22:40;4.87;;;4.57;;
1593;SDS011;790;47.000;16.084;2023-05-10T02:25:09;6.43;;;5.03;;
1593;SDS011;790;47.000;16.084;2023-05-10T02:27:40;5.60;;;5.10;;
1593;SDS011;790;47.000;16.084;2023-05-10T02:30:10;4.60;;;4.20;;
1593;SDS011;790;47.000;16.084;2023-05-10T02:32:38;5.10;;;4.60;;
1593;SDS011;790;47.000;16.084;2023-05-10T02:35:10;4.77;;;4.37;;
1593;SDS011;790;47.000;16.084;2023-05-10T02:37:41;5.30;;;4.80;;
1593;SDS011;790;47.000;16.084;2023-05-10T02:40:11;4.77;;;4.37;;
1593;SDS011;790;47.000;16.084;2023-05-10T02:42:40;5.13;;;4.47;;
1593;SDS011;790;47.000;16.084;2023-05-10T02:45:12;5.10;;;4.60;;
1593;SDS011;790;47.000;16.084;2023-05-10T02:47:42;5.20;;;4.70;;
1593;SDS011;790;47.000;16.084;2023-05-10T02:50:10;4.93;;;4.43;;
1593;SDS011;790;47.000;16.084;2023-05-10T02:52:40;4.30;;;3.90;;
1593;SDS011;790;47.000;16.084;2023-05-10T02:55:11;4.67;;;4.27;;
1593;SDS011;790;47.000;16.084;2023-05-10T02:57:43;5.30;;;4.80;;
1593;SDS011;790;47.000;16.084;2023-05-10T03:00:15;5.07;;;4.67;;
1593;SDS011;790;47.000;16.084;2023-05-10T03:02:42;4.77;;;4.47;;
1593;SDS011;790;47.000;16.084;2023-05-10T03:05:09;4.93;;;4.47;;
1593;SDS011;790;47.000;16.084;2023-05-10T03:07:37;4.87;;;4.40;;
1593;SDS011;790;47.000;16.084;2023-05-10T03:10:07;4.90;;;4.50;;
1593;SDS011;790;47.000;16.084;2023-05-10T03:12:41;5.00;;;4.57;;
1593;SDS011;790;47.000;16.084;2023-05-10T03:15:20;5.27;;;4.77;;
1593;SDS011;790;47.000;16.084;2023-05-10T03:18:06;5.03;;;4.50;;
1593;SDS011;790;47.000;16.084;2023-05-10T03:20:38;5.27;;;4.77;;
1593;SDS011;790;47.000;16.084;2023-05-10T03:23:21;4.97;;;4.57;;
1593;SDS011;790;47.000;16.084;2023-05-10T03:25:55;4.87;;;4.47;;
1593;SDS011;790;47.000;16.084;2023-05-10T03:28:23;5.60;;;4.40;;
1593;SDS011;790;47.000;16.084;2023-05-10T03:30:53;4.80;;;4.40;;
1593;SDS011;790;47.000;16.084;2023-05-10T03:33:21;4.67;;;4.37;;
1593;SDS011;790;47.000;16.084;2023-05-10T03:35:49;4.47;;;4.17;;
1593;SDS011;790;47.000;16.084;2023-05-10T03:38:16;4.50;;;4.10;;
1593;SDS011;790;47.000;16.084;2023-05-10T03:40:43;4.50;;;4.20;;
1593;SDS011;790;47.000;16.084;2023-05-10T03:43:15;4.77;;;4.30;;
1593;SDS011;790;47.000;16.084;2023-05-10T03:45:42;4.63;;;4.33;;
1593;SDS011;790;47.000;16.084;2023-05-10T03:48:09;4.77;;;4.30;;
1593;SDS011;790;47.000;16.084;2023-05-10T03:50:38;4.23;;;3.93;;
1593;SDS011;790;47.000;16.084;2023-05-10T03:53:07;5.10;;;4.70;;
1593;SDS011;790;47.000;16.084;2023-05-10T03:55:34;4.80;;;4.40;;
1593;SDS011;790;47.000;16.084;2023-05-10T03:58:01;5.40;;;4.40;;
1593;SDS011;790;47.000;16.084;2023-05-10T04:00:30;5.50;;;4.83;;
1593;SDS011;790;47.000;16.084;2023-05-10T04:02:58;5.50;;;5.00;;
1593;SDS011;790;47.000;16.084;2023-05-10T04:05:26;4.80;;;4.37;;
1593;SDS011;790;47.000;16.084;2023-05-10T04:07:54;5.47;;;4.97;;
1593;SDS011;790;47.000;16.084;2023-05-10T04:10:21;5.57;;;5.13;;
1593;SDS011;790;47.000;16.084;2023-05-10T04:12:48;5.33;;;4.93;;
1593;SDS011;790;47.000;16.084;2023-05-10T04:15:15;5.57;;;4.90;;
1593;SDS011;790;47.000;16.084;2023-05-10T04:17:45;5.60;;;5.20;;
1593;SDS011;790;47.000;16.084;2023-05-10T04:20:13;5.97;;;4.90;;
1593;SDS011;790;47.000;16.084;2023-05-10T04:22:40;5.47;;;5.07;;
1593;SDS011;790;47.000;16.084;2023-05-10T04:25:08;5.60;;;5.10;;
1593;SDS011;790;47.000;16.084;2023-05-10T04:27:37;5.23;;;4.83;;
1593;SDS011;790;47.000;16.084;2023-05-10T04:30:04;6.80;;;4.83;;
1593;SDS011;790;47.000;16.084;2023-05-10T04:32:33;5.10;;;4.70;;
1593;SDS011;790;47.000;16.084;2023-05-10T04:35:03;5.47;;;5.07;;
1593;SDS011;790;47.000;16.084;2023-05-10T04:37:31;5.30;;;4.80;;
1593;SDS011;790;47.000;16.084;2023-05-10T04:39:58;5.67;;;5.03;;
1593;SDS011;790;47.000;16.084;2023-05-10T04:42:28;5.37;;;4.83;;
1593;SDS011;790;47.000;16.084;2023-05-10T04:44:55;6.40;;;5.80;;
1593;SDS011;790;47.000;16.084;2023-05-10T04:47:23;5.30;;;4.90;;
1593;SDS011;790;47.000;16.084;2023-05-10T04:49:50;5.13;;;4.53;;
1593;SDS011;790;47.000;16.084;2023-05-10T04:52:18;5.23;;;4.83;;
1593;SDS011;790;47.000;16.084;2023-05-10T04:54:46;5.13;;;4.73;;
1593;SDS011;790;47.000;16.084;2023-05-10T04:57:13;4.90;;;4.50;;
1593;SDS011;790;47.000;16.084;2023-05-10T04:59:40;5.60;;;5.10;;
1593;SDS011;790;47.000;16.084;2023-05-10T05:02:08;5.53;;;4.80;;
1593;SDS011;790;47.000;16.084;2023-05-10T05:04:35;5.43;;;5.03;;
1593;SDS011;790;47.000;16.084;2023-05-10T05:07:02;5.90;;;5.40;;
1593;SDS011;790;47.000;16.084;2023-05-10T05:09:31;6.47;;;5.77;;
1593;SDS011;790;47.000;16.084;2023-05-10T05:11:58;6.23;;;5.47;;
1593;SDS011;790;47.000;16.084;2023-05-10T05:14:25;6.00;;;5.60;;
1593;SDS011;790;47.000;16.084;2023-05-10T05:16:53;7.63;;;6.17;;
1593;SDS011;790;47.000;16.084;2023-05-10T05:19:21;5.73;;;5.27;;
1593;SDS011;790;47.000;16.084;2023-05-10T05:21:48;7.30;;;5.30;;
1593;SDS011;790;47.000;16.084;2023-05-10T05:24:16;5.57;;;5.07;;
1593;SDS011;790;47.000;16.084;2023-05-10T05:26:44;5.70;;;5.20;;
1593;SDS011;790;47.000;16.084;2023-05-10T05:29:12;5.40;;;5.00;;
1593;SDS011;790;47.000;16.084;2023-05-10T05:31:42;6.00;;;5.50;;
1593;SDS011;790;47.000;16.084;2023-05-10T05:34:11;8.50;;;6.80;;
1593;SDS011;790;47.000;16.084;2023-05-10T05:36:38;6.40;;;5.90;;
1593;SDS011;790;47.000;16.084;2023-05-10T05:39:07;6.97;;;6.27;;
1593;SDS011;790;47.000;16.084;2023-05-10T05:41:34;6.73;;;6.03;;
1593;SDS011;790;47.000;16.084;2023-05-10T05:44:04;6.47;;;5.83;;
1593;SDS011;790;47.000;16.084;2023-05-10T05:46:34;7.40;;;6.57;;
1593;SDS011;790;47.000;16.084;2023-05-10T05:49:01;7.73;;;7.03;;
1593;SDS011;790;47.000;16.084;2023-05-10T05:51:29;7.27;;;6.23;;
1593;SDS011;790;47.000;16.084;2023-05-10T05:54:00;10.23;;;7.10;;
1593;SDS011;790;47.000;16.084;2023-05-10T05:56:30;9.77;;;7.83;;
1593;SDS011;790;47.000;16.084;2023-05-10T05:59:01;8.67;;;7.13;;
1593;SDS011;790;47.000;16.084;2023-05-10T06:01:33;8.67;;;7.40;;
1593;SDS011;790;47.000;16.084;2023-05-10T06:04:01;8.33;;;7.53;;
1593;SDS011;790;47.000;16.084;2023-05-10T06:06:32;8.80;;;7.33;;
1593;SDS011;790;47.000;16.084;2023-05-10T06:09:00;8.57;;;7.20;;
1593;SDS011;790;47.000;16.084;2023-05-10T06:11:32;9.47;;;8.23;;
1593;SDS011;790;47.000;16.084;2023-05-10T06:14:00;10.57;;;8.23;;
1593;SDS011;790;47.000;16.084;2023-05-10T06:16:32;8.23;;;7.43;;
1593;SDS011;790;47.000;16.084;2023-05-10T06:19:01;9.43;;;7.67;;
1593;SDS011;790;47.000;16.084;2023-05-10T06:21:29;9.73;;;8.00;;
1593;SDS011;790;47.000;16.084;2023-05-10T06:24:03;9.53;;;8.47;;
1593;SDS011;790;47.000;16.084;2023-05-10T06:26:32;11.40;;;7.70;;
1593;SDS011;790;47.000;16.084;2023-05-10T06:29:00;9.27;;;7.83;;
1593;SDS011;790;47.000;16.084;2023-05-10T06:31:29;8.80;;;8.00;;
1593;SDS011;790;47.000;16.084;2023-05-10T06:33:58;8.60;;;7.70;;
1593;SDS011;790;47.000;16.084;2023-05-10T06:36:25;9.10;;;8.20;;
1593;SDS011;790;47.000;16.084;2023-05-10T06:38:53;9.13;;;8.33;;
1593;SDS011;790;47.000;16.084;2023-05-10T06:41:21;8.33;;;7.43;;
1593;SDS011;790;47.000;16.084;2023-05-10T06:43:50;8.47;;;7.73;;
1593;SDS011;790;47.000;16.084;2023-05-10T06:46:18;9.70;;;7.83;;
1593;SDS011;790;47.000;16.084;2023-05-10T06:48:47;9.53;;;7.67;;
1593;SDS011;790;47.000;16.084;2023-05-10T06:51:15;9.73;;;7.60;;
1593;SDS011;790;47.000;16.084;2023-05-10T06:53:46;8.80;;;8.03;;
1593;SDS011;790;47.000;16.084;2023-05-10T06:56:14;9.33;;;7.30;;
1593;SDS011;790;47.000;16.084;2023-05-10T06:58:42;8.00;;;7.20;;
1593;SDS011;790;47.000;16.084;2023-05-10T07:01:11;7.90;;;7.10;;
1593;SDS011;790;47.000;16.084;2023-05-10T07:03:39;7.83;;;7.07;;
1593;SDS011;790;47.000;16.084;2023-05-10T07:06:17;7.13;;;6.47;;
1593;SDS011;790;47.000;16.084;2023-05-10T07:08:49;7.70;;;6.93;;
1593;SDS011;790;47.000;16.084;2023-05-10T07:11:19;7.47;;;6.80;;
1593;SDS011;790;47.000;16.084;2023-05-10T07:13:49;7.97;;;7.17;;
1593;SDS011;790;47.000;16.084;2023-05-10T07:16:19;10.70;;;6.83;;
1593;SDS011;790;47.000;16.084;2023-05-10T07:18:47;6.87;;;6.27;;
1593;SDS011;790;47.000;16.084;2023-05-10T07:21:20;7.63;;;6.97;;
1593;SDS011;790;47.000;16.084;2023-05-10T07:23:53;6.93;;;6.33;;
1593;SDS011;790;47.000;16.084;2023-05-10T07:26:20;7.10;;;6.50;;
1593;SDS011;790;47.000;16.084;2023-05-10T07:28:47;6.57;;;6.07;;
1593;SDS011;790;47.000;16.084;2023-05-10T07:31:15;10.53;;;6.60;;
1593;SDS011;790;47.000;16.084;2023-05-10T07:33:42;9.50;;;6.80;;
1593;SDS011;790;47.000;16.084;2023-05-10T07:36:09;7.07;;;6.40;;
1593;SDS011;790;47.000;16.084;2023-05-10T07:38:38;7.20;;;6.60;;
1593;SDS011;790;47.000;16.084;2023-05-10T07:41:05;8.80;;;7.00;;
1593;SDS011;790;47.000;16.084;2023-05-10T07:43:33;7.23;;;6.50;;
1593;SDS011;790;47.000;16.084;2023-05-10T07:46:01;8.63;;;7.70;;
1593;SDS011;790;47.000;16.084;2023-05-10T07:48:28;7.17;;;6.53;;
1593;SDS011;790;47.000;16.084;2023-05-10T07:50:55;7.03;;;6.43;;
1593;SDS011;790;47.000;16.084;2023-05-10T07:53:22;7.43;;;6.80;;
1593;SDS011;790;47.000;16.084;2023-05-10T07:55:51;7.03;;;6.43;;
1593;SDS011;790;47.000;16.084;2023-05-10T07:58:23;7.07;;;6.47;;
1593;SDS011;790;47.000;16.084;2023-05-10T08:00:50;6.87;;;6.27;;
1593;SDS011;790;47.000;16.084;2023-05-10T08:03:17;6.47;;;5.97;;
1593;SDS011;790;47.000;16.084;2023-05-10T08:05:46;9.53;;;6.37;;
1593;SDS011;790;47.000;16.084;2023-05-10T08:08:13;5.67;;;5.17;;
1593;SDS011;790;47.000;16.084;2023-05-10T08:10:40;7.10;;;6.60;;
1593;SDS011;790;47.000;16.084;2023-05-10T08:13:08;8.77;;;6.20;;
1593;SDS011;790;47.000;16.084;2023-05-10T08:15:35;6.47;;;5.97;;
1593;SDS011;790;47.000;16.084;2023-05-10T08:18:02;6.70;;;6.10;;
1593;SDS011;790;47.000;16.084;2023-05-10T08:20:30;6.33;;;5.83;;
1593;SDS011;790;47.000;16.084;2023-05-10T08:22:57;10.27;;;6.00;;
1593;SDS011;790;47.000;16.084;2023-05-10T08:25:24;7.40;;;6.33;;
1593;SDS011;790;47.000;16.084;2023-05-10T08:27:52;7.43;;;6.07;;
1593;SDS011;790;47.000;16.084;2023-05-10T08:30:20;6.97;;;5.93;;
1593;SDS011;790;47.000;16.084;2023-05-10T08:32:47;6.17;;;5.67;;
1593;SDS011;790;47.000;16.084;2023-05-10T08:35:15;5.87;;;5.47;;
1593;SDS011;790;47.000;16.084;2023-05-10T08:37:42;6.07;;;5.57;;
1593;SDS011;790;47.000;16.084;2023-05-10T08:40:10;5.77;;;5.27;;
1593;SDS011;790;47.000;16.084;2023-05-10T08:42:39;7.10;;;5.20;;
1593;SDS011;790;47.000;16.084;2023-05-10T08:45:10;5.90;;;5.40;;
1593;SDS011;790;47.000;16.084;2023-05-10T08:47:39;9.30;;;5.60;;
1593;SDS011;790;47.000;16.084;2023-05-10T08:50:07;5.57;;;5.05;;
1593;SDS011;790;47.000;16.084;2023-05-10T08:52:35;6.25;;;5.65;;
1593;SDS011;790;47.000;16.084;2023-05-10T08:55:07;6.05;;;5.40;;
1593;SDS011;790;47.000;16.084;2023-05-10T08:57:35;5.95;;;5.35;;
1593;SDS011;790;47.000;16.084;2023-05-10T09:00:03;5.50;;;5.10;;
1593;SDS011;790;47.000;16.084;2023-05-10T09:02:30;6.20;;;5.65;;
1593;SDS011;790;47.000;16.084;2023-05-10T09:04:59;6.10;;;5.60;;
1593;SDS011;790;47.000;16.084;2023-05-10T09:07:26;5.45;;;5.05;;
1593;SDS011;790;47.000;16.084;2023-05-10T09:09:54;6.28;;;5.68;;
1593;SDS011;790;47.000;16.084;2023-05-10T09:12:22;7.18;;;5.65;;
1593;SDS011;790;47.000;16.084;2023-05-10T09:14:49;5.10;;;4.80;;
1593;SDS011;790;47.000;16.084;2023-05-10T09:17:18;5.57;;;5.18;;
1593;SDS011;790;47.000;16.084;2023-05-10T09:19:46;4.97;;;4.57;;
1593;SDS011;790;47.000;16.084;2023-05-10T09:22:15;5.00;;;4.60;;
1593;SDS011;790;47.000;16.084;2023-05-10T09:24:43;4.60;;;4.30;;
1593;SDS011;790;47.000;16.084;2023-05-10T09:27:11;4.18;;;3.78;;
1593;SDS011;790;47.000;16.084;2023-05-10T09:29:41;4.95;;;4.50;;
1593;SDS011;790;47.000;16.084;2023-05-10T09:32:10;4.55;;;4.20;;
1593;SDS011;790;47.000;16.084;2023-05-10T09:34:38;4.32;;;4.03;;
1593;SDS011;790;47.000;16.084;2023-05-10T09:37:05;5.25;;;4.28;;
1593;SDS011;790;47.000;16.084;2023-05-10T09:39:35;3.83;;;3.63;;
1593;SDS011;790;47.000;16.084;2023-05-10T09:42:04;5.05;;;4.55;;
1593;SDS011;790;47.000;16.084;2023-05-10T09:44:33;4.78;;;4.38;;
1593;SDS011;790;47.000;16.084;2023-05-10T09:47:01;4.63;;;4.22;;
1593;SDS011;790;47.000;16.084;2023-05-10T09:49:29;7.15;;;4.32;;
1593;SDS011;790;47.000;16.084;2023-05-10T09:52:00;4.88;;;4.47;;
1593;SDS011;790;47.000;16.084;2023-05-10T09:54:28;6.03;;;4.40;;
1593;SDS011;790;47.000;16.084;2023-05-10T09:56:57;5.47;;;4.97;;
1593;SDS011;790;47.000;16.084;2023-05-10T09:59:25;4.43;;;4.13;;
1593;SDS011;790;47.000;16.084;2023-05-10T10:01:53;4.70;;;4.20;;
1593;SDS011;790;47.000;16.084;2023-05-10T10:04:23;4.60;;;4.30;;
1593;SDS011;790;47.000;16.084;2023-05-10T10:07:03;3.83;;;3.50;;
1593;SDS011;790;47.000;16.084;2023-05-10T10:09:31;4.68;;;4.00;;
1593;SDS011;790;47.000;16.084;2023-05-10T10:12:01;3.47;;;3.20;;
1593;SDS011;790;47.000;16.084;2023-05-10T10:14:28;3.47;;;3.28;;
1593;SDS011;790;47.000;16.084;2023-05-10T10:16:56;3.90;;;3.60;;
1593;SDS011;790;47.000;16.084;2023-05-10T10:19:23;3.40;;;3.20;;
1593;SDS011;790;47.000;16.084;2023-05-10T10:21:50;3.85;;;3.60;;
1593;SDS011;790;47.000;16.084;2023-05-10T10:24:17;4.10;;;3.70;;
1593;SDS011;790;47.000;16.084;2023-05-10T10:26:44;3.90;;;3.55;;
1593;SDS011;790;47.000;16.084;2023-05-10T10:32:03;4.85;;;3.40;;
1593;SDS011;790;47.000;16.084;2023-05-10T10:34:38;3.08;;;2.97;;
1593;SDS011;790;47.000;16.084;2023-05-10T10:37:06;3.40;;;2.47;;
1593;SDS011;790;47.000;16.084;2023-05-10T10:39:33;3.42;;;2.67;;
1593;SDS011;790;47.000;16.084;2023-05-10T10:42:01;3.03;;;2.83;;
1593;SDS011;790;47.000;16.084;2023-05-10T10:44:36;4.97;;;2.63;;
1593;SDS011;790;47.000;16.084;2023-05-10T10:47:05;2.33;;;2.22;;
1593;SDS011;790;47.000;16.084;2023-05-10T10:49:50;2.28;;;2.17;;
1593;SDS011;790;47.000;16.084;2023-05-10T10:52:22;2.75;;;2.55;;
1593;SDS011;790;47.000;16.084;2023-05-10T10:54:57;2.90;;;2.40;;
1593;SDS011;790;47.000;16.084;2023-05-10T10:57:27;2.97;;;2.10;;
1593;SDS011;790;47.000;16.084;2023-05-10T11:02:50;2.42;;;2.33;;
1593;SDS011;790;47.000;16.084;2023-05-10T11:08:09;2.25;;;2.15;;
1593;SDS011;790;47.000;16.084;2023-05-10T11:10:38;2.30;;;2.10;;
1593;SDS011;790;47.000;16.084;2023-05-10T11:13:06;2.53;;;2.42;;
1593;SDS011;790;47.000;16.084;2023-05-10T11:15:37;2.60;;;2.40;;
1593;SDS011;790;47.000;16.084;2023-05-10T11:18:17;2.65;;;2.55;;
1593;SDS011;790;47.000;16.084;2023-05-10T11:20:49;2.90;;;2.70;;
1593;SDS011;790;47.000;16.084;2023-05-10T11:23:17;2.22;;;2.13;;
1593;SDS011;790;47.000;16.084;2023-05-10T11:25:46;2.13;;;2.03;;
1593;SDS011;790;47.000;16.084;2023-05-10T11:28:18;2.53;;;2.35;;
1593;SDS011;790;47.000;16.084;2023-05-10T11:30:47;2.75;;;2.55;;
1593;SDS011;790;47.000;16.084;2023-05-10T11:33:17;2.72;;;2.53;;
1593;SDS011;790;47.000;16.084;2023-05-10T11:35:45;2.20;;;2.10;;
1593;SDS011;790;47.000;16.084;2023-05-10T11:38:13;2.28;;;2.17;;
1593;SDS011;790;47.000;16.084;2023-05-10T11:40:40;2.20;;;2.10;;
1593;SDS011;790;47.000;16.084;2023-05-10T11:43:08;2.97;;;2.13;;
1593;SDS011;790;47.000;16.084;2023-05-10T11:45:37;2.33;;;2.22;;
1593;SDS011;790;47.000;16.084;2023-05-10T11:48:07;3.20;;;2.33;;
1593;SDS011;790;47.000;16.084;2023-05-10T11:50:34;1.80;;;1.80;;
1593;SDS011;790;47.000;16.084;2023-05-10T11:53:01;1.83;;;1.73;;
1593;SDS011;790;47.000;16.084;2023-05-10T11:55:28;1.73;;;1.65;;
1593;SDS011;790;47.000;16.084;2023-05-10T11:57:59;2.72;;;1.88;;
1593;SDS011;790;47.000;16.084;2023-05-10T12:00:27;3.05;;;2.08;;
1593;SDS011;790;47.000;16.084;2023-05-10T12:02:55;1.48;;;1.48;;
1593;SDS011;790;47.000;16.084;2023-05-10T12:05:24;1.67;;;1.58;;
1593;SDS011;790;47.000;16.084;2023-05-10T12:07:52;2.05;;;1.48;;
1593;SDS011;790;47.000;16.084;2023-05-10T12:10:24;1.88;;;1.83;;
1593;SDS011;790;47.000;16.084;2023-05-10T12:12:52;5.22;;;1.83;;
1593;SDS011;790;47.000;16.084;2023-05-10T12:15:20;1.50;;;1.40;;
1593;SDS011;790;47.000;16.084;2023-05-10T12:17:49;1.60;;;1.60;;
1593;SDS011;790;47.000;16.084;2023-05-10T12:20:17;1.73;;;1.63;;
1593;SDS011;790;47.000;16.084;2023-05-10T12:22:48;1.50;;;1.50;;
1593;SDS011;790;47.000;16.084;2023-05-10T12:25:17;1.83;;;1.73;;
1593;SDS011;790;47.000;16.084;2023-05-10T12:27:48;1.63;;;1.52;;
1593;SDS011;790;47.000;16.084;2023-05-10T12:30:20;2.80;;;1.85;;
1593;SDS011;790;47.000;16.084;2023-05-10T12:32:48;1.80;;;1.70;;
1593;SDS011;790;47.000;16.084;2023-05-10T12:35:16;1.95;;;1.85;;
1593;SDS011;790;47.000;16.084;2023-05-10T12:37:46;2.10;;;1.75;;
1593;SDS011;790;47.000;16.084;2023-05-10T12:40:15;2.25;;;2.05;;
1593;SDS011;790;47.000;16.084;2023-05-10T12:42:42;1.92;;;1.83;;
1593;SDS011;790;47.000;16.084;2023-05-10T12:45:10;2.08;;;1.98;;
1593;SDS011;790;47.000;16.084;2023-05-10T12:47:38;2.17;;;2.08;;
1593;SDS011;790;47.000;16.084;2023-05-10T12:50:05;2.28;;;2.17;;
1593;SDS011;790;47.000;16.084;2023-05-10T12:52:33;1.90;;;1.80;;
1593;SDS011;790;47.000;16.084;2023-05-10T12:55:00;2.58;;;2.08;;
1593;SDS011;790;47.000;16.084;2023-05-10T12:57:31;3.17;;;2.10;;
1593;SDS011;790;47.000;16.084;2023-05-10T12:59:58;2.45;;;1.75;;
1593;SDS011;790;47.000;16.084;2023-05-10T13:02:25;2.00;;;1.90;;
1593;SDS011;790;47.000;16.084;2023-05-10T13:04:53;1.45;;;1.45;;
1593;SDS011;790;47.000;16.084;2023-05-10T13:07:20;2.10;;;1.90;;
1593;SDS011;790;47.000;16.084;2023-05-10T13:09:47;2.20;;;2.00;;
1593;SDS011;790;47.000;16.084;2023-05-10T13:12:14;2.40;;;2.20;;
1593;SDS011;790;47.000;16.084;2023-05-10T13:14:42;1.67;;;1.58;;
1593;SDS011;790;47.000;16.084;2023-05-10T13:17:09;1.70;;;1.70;;
1593;SDS011;790;47.000;16.084;2023-05-10T13:19:36;1.90;;;1.80;;
1593;SDS011;790;47.000;16.084;2023-05-10T13:22:04;1.67;;;1.60;;
1593;SDS011;790;47.000;16.084;2023-05-10T13:24:31;1.75;;;1.75;;
1593;SDS011;790;47.000;16.084;2023-05-10T13:26:58;1.95;;;1.75;;
1593;SDS011;790;47.000;16.084;2023-05-10T13:29:25;2.58;;;1.63;;
1593;SDS011;790;47.000;16.084;2023-05-10T13:31:54;1.75;;;1.65;;
1593;SDS011;790;47.000;16.084;2023-05-10T13:34:21;2.58;;;2.38;;
1593;SDS011;790;47.000;16.084;2023-05-10T13:36:49;4.10;;;1.52;;
1593;SDS011;790;47.000;16.084;2023-05-10T13:39:18;1.70;;;1.60;;
1593;SDS011;790;47.000;16.084;2023-05-10T13:41:45;1.40;;;1.40;;
1593;SDS011;790;47.000;16.084;2023-05-10T13:44:12;2.20;;;1.42;;
1593;SDS011;790;47.000;16.084;2023-05-10T13:46:40;1.60;;;1.60;;
1593;SDS011;790;47.000;16.084;2023-05-10T13:49:10;1.65;;;1.60;;
1593;SDS011;790;47.000;16.084;2023-05-10T13:51:37;1.48;;;1.48;;
1593;SDS011;790;47.000;16.084;2023-05-10T13:54:04;1.52;;;1.50;;
1593;SDS011;790;47.000;16.084;2023-05-10T13:56:31;1.90;;;1.80;;
1593;SDS011;790;47.000;16.084;2023-05-10T13:58:58;3.65;;;1.65;;
1593;SDS011;790;47.000;16.084;2023-05-10T14:01:25;2.55;;;1.60;;
1593;SDS011;790;47.000;16.084;2023-05-10T14:03:53;1.88;;;1.80;;
1593;SDS011;790;47.000;16.084;2023-05-10T14:06:21;2.00;;;1.90;;
1593;SDS011;790;47.000;16.084;2023-05-10T14:08:48;2.85;;;1.88;;
1593;SDS011;790;47.000;16.084;2023-05-10T14:11:15;2.40;;;1.80;;
1593;SDS011;790;47.000;16.084;2023-05-10T14:13:42;4.50;;;1.95;;
1593;SDS011;790;47.000;16.084;2023-05-10T14:16:09;1.98;;;1.88;;
1593;SDS011;790;47.000;16.084;2023-05-10T14:18:36;3.55;;;1.75;;
1593;SDS011;790;47.000;16.084;2023-05-10T14:21:04;1.92;;;1.83;;
1593;SDS011;790;47.000;16.084;2023-05-10T14:23:32;1.80;;;1.70;;
1593;SDS011;790;47.000;16.084;2023-05-10T14:25:59;4.30;;;2.10;;
1593;SDS011;790;47.000;16.084;2023-05-10T14:28:27;2.40;;;2.30;;
1593;SDS011;790;47.000;16.084;2023-05-10T14:30:55;1.83;;;1.83;;
1593;SDS011;790;47.000;16.084;2023-05-10T14:33:22;1.80;;;1.70;;
1593;SDS011;790;47.000;16.084;2023-05-10T14:35:50;1.95;;;1.85;;
1593;SDS011;790;47.000;16.084;2023-05-10T14:38:17;3.15;;;2.00;;
1593;SDS011;790;47.000;16.084;2023-05-10T14:40:46;2.03;;;1.80;;
1593;SDS011;790;47.000;16.084;2023-05-10T14:43:13;3.78;;;1.83;;
1593;SDS011;790;47.000;16.084;2023-05-10T14:45:41;1.80;;;1.80;;
1593;SDS011;790;47.000;16.084;2023-05-10T14:48:08;2.20;;;2.10;;
1593;SDS011;790;47.000;16.084;2023-05-10T14:50:40;1.98;;;1.88;;
1593;SDS011;790;47.000;16.084;2023-05-10T14:53:07;2.10;;;2.00;;
1593;SDS011;790;47.000;16.084;2023-05-10T14:55:35;2.10;;;1.67;;
1593;SDS011;790;47.000;16.084;2023-05-10T14:58:04;2.42;;;2.22;;
1593;SDS011;790;47.000;16.084;2023-05-10T15:00:32;2.45;;;1.88;;
1593;SDS011;790;47.000;16.084;2023-05-10T15:02:59;3.65;;;2.10;;
1593;SDS011;790;47.000;16.084;2023-05-10T15:05:26;2.67;;;2.20;;
1593;SDS011;790;47.000;16.084;2023-05-10T15:07:53;6.05;;;2.33;;
1593;SDS011;790;47.000;16.084;2023-05-10T15:10:20;2.00;;;1.90;;
1593;SDS011;790;47.000;16.084;2023-05-10T15:12:47;2.85;;;2.10;;
1593;SDS011;790;47.000;16.084;2023-05-10T15:15:15;2.22;;;2.10;;
1593;SDS011;790;47.000;16.084;2023-05-10T15:17:42;2.35;;;2.25;;
1593;SDS011;790;47.000;16.084;2023-05-10T15:20:10;2.08;;;1.98;;
1593;SDS011;790;47.000;16.084;2023-05-10T15:22:37;2.05;;;1.95;;
1593;SDS011;790;47.000;16.084;2023-05-10T15:25:05;1.85;;;1.75;;
1593;SDS011;790;47.000;16.084;2023-05-10T15:27:32;2.20;;;2.00;;
1593;SDS011;790;47.000;16.084;2023-05-10T15:29:59;2.88;;;2.05;;
1593;SDS011;790;47.000;16.084;2023-05-10T15:32:28;2.28;;;2.17;;
1593;SDS011;790;47.000;16.084;2023-05-10T15:34:55;7.40;;;2.30;;
1593;SDS011;790;47.000;16.084;2023-05-10T15:37:23;2.20;;;2.00;;